sensor_id;sensor_type;location;lat;lon;timestamp;temperature;humidity
74224;SHT31;62585;49.706;18.216;2023-02-01T00:01:44;2.60;85.98
74224;SHT31;62585;49.706;18.216;2023-02-01T00:04:10;2.66;85.65
74224;SHT31;62585;49.706;18.216;2023-02-01T00:06:36;2.72;85.47
74224;SHT31;62585;49.706;18.216;2023-02-01T00:09:02;2.72;85.37
74224;SHT31;62585;49.706;18.216;2023-02-01T00:11:28;2.76;85.20
74224;SHT31;62585;49.706;18.216;2023-02-01T00:13:54;2.67;85.43
74224;SHT31;62585;49.706;18.216;2023-02-01T00:16:22;2.73;85.26
74224;SHT31;62585;49.706;18.216;2023-02-01T00:18:50;2.79;85.12
74224;SHT31;62585;49.706;18.216;2023-02-01T00:21:18;2.77;85.07
74224;SHT31;62585;49.706;18.216;2023-02-01T00:23:45;2.76;85.19
74224;SHT31;62585;49.706;18.216;2023-02-01T00:26:16;2.87;85.04
74224;SHT31;62585;49.706;18.216;2023-02-01T00:28:42;2.79;85.18
74224;SHT31;62585;49.706;18.216;2023-02-01T00:31:08;2.87;84.98
74224;SHT31;62585;49.706;18.216;2023-02-01T00:33:34;2.86;85.06
74224;SHT31;62585;49.706;18.216;2023-02-01T00:36:05;2.89;84.95
74224;SHT31;62585;49.706;18.216;2023-02-01T00:38:32;2.96;84.80
74224;SHT31;62585;49.706;18.216;2023-02-01T00:41:15;3.00;84.61
74224;SHT31;62585;49.706;18.216;2023-02-01T00:43:42;3.01;84.70
74224;SHT31;62585;49.706;18.216;2023-02-01T00:46:08;3.03;84.79
74224;SHT31;62585;49.706;18.216;2023-02-01T00:48:34;2.96;85.50
74224;SHT31;62585;49.706;18.216;2023-02-01T00:51:01;2.92;86.22
74224;SHT31;62585;49.706;18.216;2023-02-01T00:53:27;2.90;86.77
74224;SHT31;62585;49.706;18.216;2023-02-01T00:55:53;3.00;86.54
74224;SHT31;62585;49.706;18.216;2023-02-01T00:58:19;2.92;86.72
74224;SHT31;62585;49.706;18.216;2023-02-01T01:00:45;2.86;86.96
74224;SHT31;62585;49.706;18.216;2023-02-01T01:03:11;2.83;86.84
74224;SHT31;62585;49.706;18.216;2023-02-01T01:05:47;2.90;86.69
74224;SHT31;62585;49.706;18.216;2023-02-01T01:08:14;2.80;87.11
74224;SHT31;62585;49.706;18.216;2023-02-01T01:10:40;2.75;87.19
74224;SHT31;62585;49.706;18.216;2023-02-01T01:13:06;2.77;87.20
74224;SHT31;62585;49.706;18.216;2023-02-01T01:15:39;2.76;87.09
74224;SHT31;62585;49.706;18.216;2023-02-01T01:18:06;2.66;88.11
74224;SHT31;62585;49.706;18.216;2023-02-01T01:20:34;2.59;88.49
74224;SHT31;62585;49.706;18.216;2023-02-01T01:23:00;2.62;88.47
74224;SHT31;62585;49.706;18.216;2023-02-01T01:25:26;2.65;88.82
74224;SHT31;62585;49.706;18.216;2023-02-01T01:27:52;2.53;89.23
74224;SHT31;62585;49.706;18.216;2023-02-01T01:30:18;2.53;89.88
74224;SHT31;62585;49.706;18.216;2023-02-01T01:32:43;2.49;90.36
74224;SHT31;62585;49.706;18.216;2023-02-01T01:35:10;2.41;90.65
74224;SHT31;62585;49.706;18.216;2023-02-01T01:37:35;2.39;90.82
74224;SHT31;62585;49.706;18.216;2023-02-01T01:40:03;2.32;91.44
74224;SHT31;62585;49.706;18.216;2023-02-01T01:42:28;2.31;91.68
74224;SHT31;62585;49.706;18.216;2023-02-01T01:47:35;2.27;91.60
74224;SHT31;62585;49.706;18.216;2023-02-01T01:50:04;2.14;91.73
74224;SHT31;62585;49.706;18.216;2023-02-01T01:52:31;2.18;91.41
74224;SHT31;62585;49.706;18.216;2023-02-01T01:55:00;2.07;91.79
74224;SHT31;62585;49.706;18.216;2023-02-01T01:57:32;2.03;91.92
74224;SHT31;62585;49.706;18.216;2023-02-01T02:00:12;1.98;91.81
74224;SHT31;62585;49.706;18.216;2023-02-01T02:02:38;2.03;91.71
74224;SHT31;62585;49.706;18.216;2023-02-01T02:05:05;2.04;91.54
74224;SHT31;62585;49.706;18.216;2023-02-01T02:07:44;2.00;91.52
74224;SHT31;62585;49.706;18.216;2023-02-01T02:12:48;2.01;91.27
74224;SHT31;62585;49.706;18.216;2023-02-01T02:15:16;1.94;91.34
74224;SHT31;62585;49.706;18.216;2023-02-01T02:33:53;2.03;89.90
74224;SHT31;62585;49.706;18.216;2023-02-01T02:45:16;2.18;88.01
74224;SHT31;62585;49.706;18.216;2023-02-01T02:50:46;2.31;86.86
74224;SHT31;62585;49.706;18.216;2023-02-01T02:56:39;2.36;86.33
74224;SHT31;62585;49.706;18.216;2023-02-01T02:59:24;2.45;86.08
74224;SHT31;62585;49.706;18.216;2023-02-01T03:02:09;2.45;85.78
74224;SHT31;62585;49.706;18.216;2023-02-01T03:04:55;2.50;85.86
74224;SHT31;62585;49.706;18.216;2023-02-01T03:10:30;2.59;85.86
74224;SHT31;62585;49.706;18.216;2023-02-01T03:13:04;2.62;85.01
74224;SHT31;62585;49.706;18.216;2023-02-01T03:15:35;2.60;84.90
74224;SHT31;62585;49.706;18.216;2023-02-01T03:18:07;2.66;84.85
74224;SHT31;62585;49.706;18.216;2023-02-01T03:20:37;2.66;84.75
74224;SHT31;62585;49.706;18.216;2023-02-01T03:23:05;2.60;84.91
74224;SHT31;62585;49.706;18.216;2023-02-01T03:25:32;2.65;84.79
74224;SHT31;62585;49.706;18.216;2023-02-01T03:28:08;2.59;84.53
74224;SHT31;62585;49.706;18.216;2023-02-01T03:30:41;2.55;84.40
74224;SHT31;62585;49.706;18.216;2023-02-01T03:33:12;2.50;84.21
74224;SHT31;62585;49.706;18.216;2023-02-01T03:41:40;2.35;84.66
74224;SHT31;62585;49.706;18.216;2023-02-01T03:44:13;2.31;85.40
74224;SHT31;62585;49.706;18.216;2023-02-01T03:47:10;2.28;85.13
74224;SHT31;62585;49.706;18.216;2023-02-01T03:49:45;2.24;85.67
74224;SHT31;62585;49.706;18.216;2023-02-01T03:52:18;2.22;85.66
74224;SHT31;62585;49.706;18.216;2023-02-01T03:54:45;2.18;86.24
74224;SHT31;62585;49.706;18.216;2023-02-01T03:57:14;2.15;86.09
74224;SHT31;62585;49.706;18.216;2023-02-01T03:59:44;2.10;86.80
74224;SHT31;62585;49.706;18.216;2023-02-01T04:02:10;2.10;87.12
74224;SHT31;62585;49.706;18.216;2023-02-01T04:04:36;2.13;87.46
74224;SHT31;62585;49.706;18.216;2023-02-01T04:07:03;2.04;87.51
74224;SHT31;62585;49.706;18.216;2023-02-01T04:09:29;2.07;87.55
74224;SHT31;62585;49.706;18.216;2023-02-01T04:11:55;2.01;87.88
74224;SHT31;62585;49.706;18.216;2023-02-01T04:14:21;2.01;88.08
74224;SHT31;62585;49.706;18.216;2023-02-01T04:16:46;2.01;88.25
74224;SHT31;62585;49.706;18.216;2023-02-01T04:19:12;2.07;88.20
74224;SHT31;62585;49.706;18.216;2023-02-01T04:21:38;2.00;88.61
74224;SHT31;62585;49.706;18.216;2023-02-01T04:24:04;2.04;88.47
74224;SHT31;62585;49.706;18.216;2023-02-01T04:26:30;1.90;88.83
74224;SHT31;62585;49.706;18.216;2023-02-01T04:28:56;1.90;88.72
74224;SHT31;62585;49.706;18.216;2023-02-01T04:31:22;2.03;88.16
74224;SHT31;62585;49.706;18.216;2023-02-01T04:33:51;2.06;87.67
74224;SHT31;62585;49.706;18.216;2023-02-01T04:36:19;2.04;87.49
74224;SHT31;62585;49.706;18.216;2023-02-01T04:38:49;2.07;86.92
74224;SHT31;62585;49.706;18.216;2023-02-01T04:41:15;2.13;86.67
74224;SHT31;62585;49.706;18.216;2023-02-01T04:43:46;2.15;86.25
74224;SHT31;62585;49.706;18.216;2023-02-01T04:46:12;2.14;86.31
74224;SHT31;62585;49.706;18.216;2023-02-01T04:48:38;2.20;85.81
74224;SHT31;62585;49.706;18.216;2023-02-01T04:51:04;2.13;86.25
74224;SHT31;62585;49.706;18.216;2023-02-01T04:53:29;2.22;85.77
74224;SHT31;62585;49.706;18.216;2023-02-01T04:55:55;2.46;84.93
74224;SHT31;62585;49.706;18.216;2023-02-01T04:58:21;2.46;85.30
74224;SHT31;62585;49.706;18.216;2023-02-01T05:00:47;2.41;85.50
74224;SHT31;62585;49.706;18.216;2023-02-01T05:03:13;2.39;85.97
74224;SHT31;62585;49.706;18.216;2023-02-01T05:05:39;2.36;85.96
74224;SHT31;62585;49.706;18.216;2023-02-01T05:08:05;2.38;85.97
74224;SHT31;62585;49.706;18.216;2023-02-01T05:10:31;2.34;86.20
74224;SHT31;62585;49.706;18.216;2023-02-01T05:12:57;2.32;85.91
74224;SHT31;62585;49.706;18.216;2023-02-01T05:15:41;2.32;85.67
74224;SHT31;62585;49.706;18.216;2023-02-01T05:18:07;2.24;85.80
74224;SHT31;62585;49.706;18.216;2023-02-01T05:20:33;2.31;85.49
74224;SHT31;62585;49.706;18.216;2023-02-01T05:22:58;2.36;84.93
74224;SHT31;62585;49.706;18.216;2023-02-01T05:25:24;2.44;84.55
74224;SHT31;62585;49.706;18.216;2023-02-01T05:27:50;2.45;84.41
74224;SHT31;62585;49.706;18.216;2023-02-01T05:30:16;2.41;84.57
74224;SHT31;62585;49.706;18.216;2023-02-01T05:32:42;2.32;84.62
74224;SHT31;62585;49.706;18.216;2023-02-01T05:35:08;2.46;84.16
74224;SHT31;62585;49.706;18.216;2023-02-01T05:37:34;2.41;84.26
74224;SHT31;62585;49.706;18.216;2023-02-01T05:40:02;2.46;83.81
74224;SHT31;62585;49.706;18.216;2023-02-01T05:42:28;2.42;84.07
74224;SHT31;62585;49.706;18.216;2023-02-01T05:44:54;2.42;83.97
74224;SHT31;62585;49.706;18.216;2023-02-01T05:47:20;2.52;83.44
74224;SHT31;62585;49.706;18.216;2023-02-01T05:49:46;2.60;83.03
74224;SHT31;62585;49.706;18.216;2023-02-01T05:52:12;2.63;83.04
74224;SHT31;62585;49.706;18.216;2023-02-01T05:54:37;2.57;82.97
74224;SHT31;62585;49.706;18.216;2023-02-01T05:57:03;2.62;82.71
74224;SHT31;62585;49.706;18.216;2023-02-01T05:59:29;2.59;82.55
74224;SHT31;62585;49.706;18.216;2023-02-01T06:01:55;2.56;82.82
74224;SHT31;62585;49.706;18.216;2023-02-01T06:04:20;2.69;82.25
74224;SHT31;62585;49.706;18.216;2023-02-01T06:06:46;2.59;82.80
74224;SHT31;62585;49.706;18.216;2023-02-01T06:09:12;2.59;82.95
74224;SHT31;62585;49.706;18.216;2023-02-01T06:11:39;2.46;83.62
74224;SHT31;62585;49.706;18.216;2023-02-01T06:14:05;2.44;83.94
74224;SHT31;62585;49.706;18.216;2023-02-01T06:16:33;2.46;84.06
74224;SHT31;62585;49.706;18.216;2023-02-01T06:18:58;2.44;84.24
74224;SHT31;62585;49.706;18.216;2023-02-01T06:21:24;2.45;84.14
74224;SHT31;62585;49.706;18.216;2023-02-01T06:23:51;2.41;84.28
74224;SHT31;62585;49.706;18.216;2023-02-01T06:26:17;2.39;84.44
74224;SHT31;62585;49.706;18.216;2023-02-01T06:28:43;2.45;84.44
74224;SHT31;62585;49.706;18.216;2023-02-01T06:31:09;2.49;84.06
74224;SHT31;62585;49.706;18.216;2023-02-01T06:33:36;2.49;84.02
74224;SHT31;62585;49.706;18.216;2023-02-01T06:36:04;2.53;83.50
74224;SHT31;62585;49.706;18.216;2023-02-01T06:38:31;2.63;83.09
74224;SHT31;62585;49.706;18.216;2023-02-01T06:41:00;2.62;83.18
74224;SHT31;62585;49.706;18.216;2023-02-01T06:43:26;2.69;82.66
74224;SHT31;62585;49.706;18.216;2023-02-01T06:45:53;2.75;82.07
74224;SHT31;62585;49.706;18.216;2023-02-01T06:48:19;2.75;81.81
74224;SHT31;62585;49.706;18.216;2023-02-01T06:50:45;2.82;81.34
74224;SHT31;62585;49.706;18.216;2023-02-01T06:53:11;2.92;81.02
74224;SHT31;62585;49.706;18.216;2023-02-01T06:55:36;2.92;81.21
74224;SHT31;62585;49.706;18.216;2023-02-01T06:58:02;2.87;81.05
74224;SHT31;62585;49.706;18.216;2023-02-01T07:00:29;2.94;80.67
74224;SHT31;62585;49.706;18.216;2023-02-01T07:02:57;2.94;80.68
74224;SHT31;62585;49.706;18.216;2023-02-01T07:05:23;2.99;80.67
74224;SHT31;62585;49.706;18.216;2023-02-01T07:07:49;2.97;80.66
74224;SHT31;62585;49.706;18.216;2023-02-01T07:10:14;3.03;80.25
74224;SHT31;62585;49.706;18.216;2023-02-01T07:12:40;3.05;80.40
74224;SHT31;62585;49.706;18.216;2023-02-01T07:15:06;3.00;80.49
74224;SHT31;62585;49.706;18.216;2023-02-01T07:17:32;2.96;80.68
74224;SHT31;62585;49.706;18.216;2023-02-01T07:19:58;2.96;80.47
74224;SHT31;62585;49.706;18.216;2023-02-01T07:22:27;3.00;80.04
74224;SHT31;62585;49.706;18.216;2023-02-01T07:24:53;3.08;79.87
74224;SHT31;62585;49.706;18.216;2023-02-01T07:27:19;3.15;79.72
74224;SHT31;62585;49.706;18.216;2023-02-01T07:29:45;3.10;79.82
74224;SHT31;62585;49.706;18.216;2023-02-01T07:32:11;3.05;80.09
74224;SHT31;62585;49.706;18.216;2023-02-01T07:34:37;3.11;79.76
74224;SHT31;62585;49.706;18.216;2023-02-01T07:37:02;3.15;79.46
74224;SHT31;62585;49.706;18.216;2023-02-01T07:39:28;3.17;79.64
74224;SHT31;62585;49.706;18.216;2023-02-01T07:41:57;3.14;79.47
74224;SHT31;62585;49.706;18.216;2023-02-01T07:44:23;3.13;79.38
74224;SHT31;62585;49.706;18.216;2023-02-01T07:46:49;3.14;79.31
74224;SHT31;62585;49.706;18.216;2023-02-01T07:49:15;3.17;79.30
74224;SHT31;62585;49.706;18.216;2023-02-01T07:51:43;3.14;79.18
74224;SHT31;62585;49.706;18.216;2023-02-01T07:54:08;3.03;79.29
74224;SHT31;62585;49.706;18.216;2023-02-01T07:56:34;3.17;78.38
74224;SHT31;62585;49.706;18.216;2023-02-01T07:59:00;3.27;77.79
74224;SHT31;62585;49.706;18.216;2023-02-01T08:01:27;3.20;77.56
74224;SHT31;62585;49.706;18.216;2023-02-01T08:03:57;3.25;76.94
74224;SHT31;62585;49.706;18.216;2023-02-01T08:06:29;3.34;77.31
74224;SHT31;62585;49.706;18.216;2023-02-01T08:08:56;3.38;76.74
74224;SHT31;62585;49.706;18.216;2023-02-01T08:11:23;3.38;76.37
74224;SHT31;62585;49.706;18.216;2023-02-01T08:13:49;3.36;76.65
74224;SHT31;62585;49.706;18.216;2023-02-01T08:16:17;3.35;76.53
74224;SHT31;62585;49.706;18.216;2023-02-01T08:18:44;3.39;76.68
74224;SHT31;62585;49.706;18.216;2023-02-01T08:23:38;3.45;76.75
74224;SHT31;62585;49.706;18.216;2023-02-01T08:26:19;3.43;76.48
74224;SHT31;62585;49.706;18.216;2023-02-01T08:28:51;3.36;77.04
74224;SHT31;62585;49.706;18.216;2023-02-01T08:31:19;3.31;76.99
74224;SHT31;62585;49.706;18.216;2023-02-01T08:33:49;3.34;76.95
74224;SHT31;62585;49.706;18.216;2023-02-01T08:36:15;3.34;77.30
74224;SHT31;62585;49.706;18.216;2023-02-01T08:38:41;3.32;77.20
74224;SHT31;62585;49.706;18.216;2023-02-01T08:41:11;3.28;77.27
74224;SHT31;62585;49.706;18.216;2023-02-01T08:43:38;3.38;76.71
74224;SHT31;62585;49.706;18.216;2023-02-01T08:46:05;3.39;76.57
74224;SHT31;62585;49.706;18.216;2023-02-01T08:48:31;3.43;76.61
74224;SHT31;62585;49.706;18.216;2023-02-01T08:51:01;3.42;76.29
74224;SHT31;62585;49.706;18.216;2023-02-01T08:53:27;3.43;76.22
74224;SHT31;62585;49.706;18.216;2023-02-01T08:55:53;3.42;76.12
74224;SHT31;62585;49.706;18.216;2023-02-01T08:58:18;3.43;76.21
74224;SHT31;62585;49.706;18.216;2023-02-01T09:00:45;3.52;75.01
74224;SHT31;62585;49.706;18.216;2023-02-01T09:03:11;3.48;75.68
74224;SHT31;62585;49.706;18.216;2023-02-01T09:05:38;3.49;76.00
74224;SHT31;62585;49.706;18.216;2023-02-01T09:08:04;3.55;75.14
74224;SHT31;62585;49.706;18.216;2023-02-01T09:10:30;3.58;75.40
74224;SHT31;62585;49.706;18.216;2023-02-01T09:12:56;3.58;74.82
74224;SHT31;62585;49.706;18.216;2023-02-01T09:15:22;3.55;75.13
74224;SHT31;62585;49.706;18.216;2023-02-01T09:17:48;3.59;75.27
74224;SHT31;62585;49.706;18.216;2023-02-01T09:20:15;3.56;75.22
74224;SHT31;62585;49.706;18.216;2023-02-01T09:22:40;3.51;75.30
74224;SHT31;62585;49.706;18.216;2023-02-01T09:25:07;3.58;75.22
74224;SHT31;62585;49.706;18.216;2023-02-01T09:27:33;3.63;75.20
74224;SHT31;62585;49.706;18.216;2023-02-01T09:29:59;3.56;75.51
74224;SHT31;62585;49.706;18.216;2023-02-01T09:32:25;3.52;76.14
74224;SHT31;62585;49.706;18.216;2023-02-01T09:34:52;3.49;76.37
74224;SHT31;62585;49.706;18.216;2023-02-01T09:37:18;3.56;76.33
74224;SHT31;62585;49.706;18.216;2023-02-01T09:39:44;3.56;76.53
74224;SHT31;62585;49.706;18.216;2023-02-01T09:47:34;3.55;76.65
74224;SHT31;62585;49.706;18.216;2023-02-01T09:50:05;3.52;76.78
74224;SHT31;62585;49.706;18.216;2023-02-01T09:52:40;3.61;77.07
74224;SHT31;62585;49.706;18.216;2023-02-01T09:55:19;3.54;76.80
74224;SHT31;62585;49.706;18.216;2023-02-01T09:57:57;3.59;77.11
74224;SHT31;62585;49.706;18.216;2023-02-01T10:00:28;3.59;77.28
74224;SHT31;62585;49.706;18.216;2023-02-01T10:02:56;3.59;77.55
74224;SHT31;62585;49.706;18.216;2023-02-01T10:14:28;3.63;78.58
74224;SHT31;62585;49.706;18.216;2023-02-01T10:22:11;3.62;79.22
74224;SHT31;62585;49.706;18.216;2023-02-01T10:27:38;3.62;79.59
74224;SHT31;62585;49.706;18.216;2023-02-01T10:30:29;3.63;79.82
74224;SHT31;62585;49.706;18.216;2023-02-01T10:33:01;3.58;79.82
74224;SHT31;62585;49.706;18.216;2023-02-01T10:35:36;3.63;80.04
74224;SHT31;62585;49.706;18.216;2023-02-01T10:38:03;3.89;79.55
74224;SHT31;62585;49.706;18.216;2023-02-01T10:40:31;3.70;79.78
74224;SHT31;62585;49.706;18.216;2023-02-01T10:42:59;3.66;80.69
74224;SHT31;62585;49.706;18.216;2023-02-01T10:45:30;3.69;80.70
74224;SHT31;62585;49.706;18.216;2023-02-01T10:47:59;3.75;80.95
74224;SHT31;62585;49.706;18.216;2023-02-01T10:56:09;3.69;81.03
74224;SHT31;62585;49.706;18.216;2023-02-01T10:58:36;3.73;81.20
74224;SHT31;62585;49.706;18.216;2023-02-01T11:01:08;3.76;81.12
74224;SHT31;62585;49.706;18.216;2023-02-01T11:03:52;3.72;81.09
74224;SHT31;62585;49.706;18.216;2023-02-01T11:06:34;3.75;80.97
74224;SHT31;62585;49.706;18.216;2023-02-01T11:09:16;3.79;80.43
74224;SHT31;62585;49.706;18.216;2023-02-01T11:16:50;3.89;79.98
74224;SHT31;62585;49.706;18.216;2023-02-01T11:19:18;3.97;79.71
74224;SHT31;62585;49.706;18.216;2023-02-01T11:21:44;3.87;79.51
74224;SHT31;62585;49.706;18.216;2023-02-01T11:24:29;3.97;79.49
74224;SHT31;62585;49.706;18.216;2023-02-01T11:26:57;4.03;79.41
74224;SHT31;62585;49.706;18.216;2023-02-01T11:29:25;4.01;78.69
74224;SHT31;62585;49.706;18.216;2023-02-01T11:31:57;4.01;78.74
74224;SHT31;62585;49.706;18.216;2023-02-01T11:34:26;4.06;78.71
74224;SHT31;62585;49.706;18.216;2023-02-01T11:36:57;4.07;78.85
74224;SHT31;62585;49.706;18.216;2023-02-01T11:39:26;3.99;78.79
74224;SHT31;62585;49.706;18.216;2023-02-01T11:42:04;4.11;78.75
74224;SHT31;62585;49.706;18.216;2023-02-01T11:44:41;4.10;79.22
74224;SHT31;62585;49.706;18.216;2023-02-01T11:47:30;4.11;78.85
74224;SHT31;62585;49.706;18.216;2023-02-01T11:49:59;4.07;79.31
74224;SHT31;62585;49.706;18.216;2023-02-01T12:06:18;3.99;80.16
74224;SHT31;62585;49.706;18.216;2023-02-01T12:12:06;4.00;80.21
74224;SHT31;62585;49.706;18.216;2023-02-01T12:29:45;3.43;83.76
74224;SHT31;62585;49.706;18.216;2023-02-01T12:38:36;3.34;84.52
74224;SHT31;62585;49.706;18.216;2023-02-01T12:43:55;3.38;84.41
74224;SHT31;62585;49.706;18.216;2023-02-01T12:46:33;3.51;84.35
74224;SHT31;62585;49.706;18.216;2023-02-01T12:49:14;3.52;83.72
74224;SHT31;62585;49.706;18.216;2023-02-01T12:51:44;3.48;83.81
74224;SHT31;62585;49.706;18.216;2023-02-01T12:54:41;3.51;84.00
74224;SHT31;62585;49.706;18.216;2023-02-01T13:00:41;3.58;83.76
74224;SHT31;62585;49.706;18.216;2023-02-01T13:02:45;3.56;83.75
74224;SHT31;62585;49.706;18.216;2023-02-01T13:05:21;3.59;84.12
74224;SHT31;62585;49.706;18.216;2023-02-01T13:08:02;3.49;84.27
74224;SHT31;62585;49.706;18.216;2023-02-01T13:10:46;3.48;84.42
74224;SHT31;62585;49.706;18.216;2023-02-01T13:13:20;3.42;84.66
74224;SHT31;62585;49.706;18.216;2023-02-01T13:18:40;3.24;85.55
74224;SHT31;62585;49.706;18.216;2023-02-01T13:21:18;3.31;85.36
74224;SHT31;62585;49.706;18.216;2023-02-01T13:23:48;3.25;85.53
74224;SHT31;62585;49.706;18.216;2023-02-01T13:26:14;3.27;85.74
74224;SHT31;62585;49.706;18.216;2023-02-01T13:28:56;3.32;85.36
74224;SHT31;62585;49.706;18.216;2023-02-01T13:37:31;3.32;85.53
74224;SHT31;62585;49.706;18.216;2023-02-01T13:42:25;3.35;85.65
74224;SHT31;62585;49.706;18.216;2023-02-01T13:44:57;3.34;85.33
74224;SHT31;62585;49.706;18.216;2023-02-01T13:47:26;3.36;85.62
74224;SHT31;62585;49.706;18.216;2023-02-01T13:49:56;3.31;85.78
74224;SHT31;62585;49.706;18.216;2023-02-01T13:52:26;3.36;85.71
74224;SHT31;62585;49.706;18.216;2023-02-01T13:57:46;3.42;85.19
74224;SHT31;62585;49.706;18.216;2023-02-01T14:00:36;3.48;85.12
74224;SHT31;62585;49.706;18.216;2023-02-01T14:26:53;3.52;85.06
74224;SHT31;62585;49.706;18.216;2023-02-01T14:29:35;3.59;84.99
74224;SHT31;62585;49.706;18.216;2023-02-01T14:44:48;3.75;82.51
74224;SHT31;62585;49.706;18.216;2023-02-01T14:52:35;3.90;81.18
74224;SHT31;62585;49.706;18.216;2023-02-01T14:55:08;3.93;80.85
74224;SHT31;62585;49.706;18.216;2023-02-01T14:57:37;3.91;81.19
74224;SHT31;62585;49.706;18.216;2023-02-01T15:00:15;3.90;80.99
74224;SHT31;62585;49.706;18.216;2023-02-01T15:02:43;3.87;81.11
74224;SHT31;62585;49.706;18.216;2023-02-01T15:05:26;3.89;81.05
74224;SHT31;62585;49.706;18.216;2023-02-01T15:07:55;3.86;80.91
74224;SHT31;62585;49.706;18.216;2023-02-01T15:10:23;3.87;80.85
74224;SHT31;62585;49.706;18.216;2023-02-01T15:12:49;3.83;80.79
74224;SHT31;62585;49.706;18.216;2023-02-01T15:15:21;3.86;80.52
74224;SHT31;62585;49.706;18.216;2023-02-01T15:17:56;3.83;80.88
74224;SHT31;62585;49.706;18.216;2023-02-01T15:20:27;3.82;80.50
74224;SHT31;62585;49.706;18.216;2023-02-01T15:25:26;3.82;80.35
74224;SHT31;62585;49.706;18.216;2023-02-01T15:27:53;3.82;80.53
74224;SHT31;62585;49.706;18.216;2023-02-01T15:30:31;3.82;79.99
74224;SHT31;62585;49.706;18.216;2023-02-01T15:35:42;3.82;79.88
74224;SHT31;62585;49.706;18.216;2023-02-01T15:38:44;3.82;79.64
74224;SHT31;62585;49.706;18.216;2023-02-01T15:41:29;3.80;79.63
74224;SHT31;62585;49.706;18.216;2023-02-01T15:46:35;3.83;79.59
74224;SHT31;62585;49.706;18.216;2023-02-01T15:49:02;3.82;79.73
74224;SHT31;62585;49.706;18.216;2023-02-01T15:51:30;3.79;79.33
74224;SHT31;62585;49.706;18.216;2023-02-01T15:54:04;3.80;79.35
74224;SHT31;62585;49.706;18.216;2023-02-01T15:56:39;3.82;79.06
74224;SHT31;62585;49.706;18.216;2023-02-01T15:59:17;3.85;78.98
74224;SHT31;62585;49.706;18.216;2023-02-01T16:01:43;3.79;79.00
74224;SHT31;62585;49.706;18.216;2023-02-01T16:04:19;3.80;78.66
74224;SHT31;62585;49.706;18.216;2023-02-01T16:06:57;3.78;78.66
74224;SHT31;62585;49.706;18.216;2023-02-01T16:09:25;3.70;78.89
74224;SHT31;62585;49.706;18.216;2023-02-01T16:12:01;3.70;78.89
74224;SHT31;62585;49.706;18.216;2023-02-01T16:14:27;3.63;78.72
74224;SHT31;62585;49.706;18.216;2023-02-01T16:16:57;3.66;78.57
74224;SHT31;62585;49.706;18.216;2023-02-01T16:19:23;3.62;78.19
74224;SHT31;62585;49.706;18.216;2023-02-01T16:21:54;3.70;77.61
74224;SHT31;62585;49.706;18.216;2023-02-01T16:24:21;3.70;77.31
74224;SHT31;62585;49.706;18.216;2023-02-01T16:26:48;3.68;77.32
74224;SHT31;62585;49.706;18.216;2023-02-01T16:29:14;3.65;77.26
74224;SHT31;62585;49.706;18.216;2023-02-01T16:31:42;3.73;76.68
74224;SHT31;62585;49.706;18.216;2023-02-01T16:34:14;3.89;75.73
74224;SHT31;62585;49.706;18.216;2023-02-01T16:36:40;3.91;75.74
74224;SHT31;62585;49.706;18.216;2023-02-01T16:39:09;3.96;75.55
74224;SHT31;62585;49.706;18.216;2023-02-01T16:41:36;3.94;75.67
74224;SHT31;62585;49.706;18.216;2023-02-01T16:44:02;3.94;75.86
74224;SHT31;62585;49.706;18.216;2023-02-01T16:46:30;3.91;76.18
74224;SHT31;62585;49.706;18.216;2023-02-01T16:48:58;4.03;75.63
74224;SHT31;62585;49.706;18.216;2023-02-01T16:51:31;4.08;75.96
74224;SHT31;62585;49.706;18.216;2023-02-01T16:53:59;3.94;76.59
74224;SHT31;62585;49.706;18.216;2023-02-01T16:56:30;4.01;76.32
74224;SHT31;62585;49.706;18.216;2023-02-01T16:58:57;4.07;76.32
74224;SHT31;62585;49.706;18.216;2023-02-01T17:01:23;4.10;76.31
74224;SHT31;62585;49.706;18.216;2023-02-01T17:03:49;3.96;77.33
74224;SHT31;62585;49.706;18.216;2023-02-01T17:06:20;3.96;78.20
74224;SHT31;62585;49.706;18.216;2023-02-01T17:08:57;3.80;79.54
74224;SHT31;62585;49.706;18.216;2023-02-01T17:11:24;3.66;80.60
74224;SHT31;62585;49.706;18.216;2023-02-01T17:13:50;3.62;80.96
74224;SHT31;62585;49.706;18.216;2023-02-01T17:16:24;3.62;81.35
74224;SHT31;62585;49.706;18.216;2023-02-01T17:21:22;3.46;83.15
74224;SHT31;62585;49.706;18.216;2023-02-01T17:23:48;3.48;83.29
74224;SHT31;62585;49.706;18.216;2023-02-01T17:26:13;3.42;83.56
74224;SHT31;62585;49.706;18.216;2023-02-01T17:28:39;3.35;83.77
74224;SHT31;62585;49.706;18.216;2023-02-01T17:31:05;3.34;84.50
74224;SHT31;62585;49.706;18.216;2023-02-01T17:33:34;3.42;84.14
74224;SHT31;62585;49.706;18.216;2023-02-01T17:36:01;3.42;84.33
74224;SHT31;62585;49.706;18.216;2023-02-01T17:38:27;3.39;83.54
74224;SHT31;62585;49.706;18.216;2023-02-01T17:40:53;3.42;83.77
74224;SHT31;62585;49.706;18.216;2023-02-01T17:43:24;3.39;82.35
74224;SHT31;62585;49.706;18.216;2023-02-01T17:45:57;3.41;82.66
74224;SHT31;62585;49.706;18.216;2023-02-01T17:48:24;3.52;81.77
74224;SHT31;62585;49.706;18.216;2023-02-01T17:50:56;3.43;82.55
74224;SHT31;62585;49.706;18.216;2023-02-01T17:53:26;3.46;82.51
74224;SHT31;62585;49.706;18.216;2023-02-01T17:55:52;3.49;82.27
74224;SHT31;62585;49.706;18.216;2023-02-01T17:58:18;3.46;82.32
74224;SHT31;62585;49.706;18.216;2023-02-01T18:00:45;3.49;81.75
74224;SHT31;62585;49.706;18.216;2023-02-01T18:03:28;3.54;81.03
74224;SHT31;62585;49.706;18.216;2023-02-01T18:05:56;3.43;81.76
74224;SHT31;62585;49.706;18.216;2023-02-01T18:08:25;3.54;80.81
74224;SHT31;62585;49.706;18.216;2023-02-01T18:10:56;3.56;80.23
74224;SHT31;62585;49.706;18.216;2023-02-01T18:13:29;3.61;80.17
74224;SHT31;62585;49.706;18.216;2023-02-01T18:15:56;3.59;80.18
74224;SHT31;62585;49.706;18.216;2023-02-01T18:18:24;3.72;79.45
74224;SHT31;62585;49.706;18.216;2023-02-01T18:20:50;3.75;79.41
74224;SHT31;62585;49.706;18.216;2023-02-01T18:23:19;3.75;78.74
74224;SHT31;62585;49.706;18.216;2023-02-01T18:25:45;3.76;78.84
74224;SHT31;62585;49.706;18.216;2023-02-01T18:28:13;3.79;78.84
74224;SHT31;62585;49.706;18.216;2023-02-01T18:30:41;3.79;78.73
74224;SHT31;62585;49.706;18.216;2023-02-01T18:33:11;3.85;78.41
74224;SHT31;62585;49.706;18.216;2023-02-01T18:35:36;3.83;78.40
74224;SHT31;62585;49.706;18.216;2023-02-01T18:38:02;3.91;77.98
74224;SHT31;62585;49.706;18.216;2023-02-01T18:40:32;3.83;78.29
74224;SHT31;62585;49.706;18.216;2023-02-01T18:42:59;3.85;78.36
74224;SHT31;62585;49.706;18.216;2023-02-01T18:45:31;3.78;78.81
74224;SHT31;62585;49.706;18.216;2023-02-01T18:47:58;3.83;78.78
74224;SHT31;62585;49.706;18.216;2023-02-01T18:50:32;3.75;79.25
74224;SHT31;62585;49.706;18.216;2023-02-01T18:52:59;3.73;79.69
74224;SHT31;62585;49.706;18.216;2023-02-01T18:55:26;3.72;79.72